createdAt,value
2023-02-19T00:02:29.369Z,98035.95
2023-02-19T00:07:36.660Z,98039.16
2023-02-19T00:12:44.360Z,98048.46
2023-02-19T00:17:51.389Z,98048.02
2023-02-19T00:22:58.610Z,98042.29
2023-02-19T00:28:06.034Z,98040.45
2023-02-19T00:33:13.291Z,98045.36
2023-02-19T00:38:20.533Z,98047.64
2023-02-19T00:43:28.003Z,98049.90
2023-02-19T00:48:35.120Z,98043.37
2023-02-19T00:53:42.565Z,98037.00
2023-02-19T00:58:50.690Z,98031.02
2023-02-19T01:03:57.662Z,98034.83
2023-02-19T01:09:05.564Z,98030.63
2023-02-19T01:14:12.738Z,98024.43
2023-02-19T01:19:19.719Z,98027.34
2023-02-19T01:24:26.802Z,98018.13
2023-02-19T01:29:33.944Z,98014.11
2023-02-19T01:34:41.415Z,98004.55
2023-02-19T01:39:49.197Z,98002.35
2023-02-19T01:45:19.052Z,97998.06
2023-02-19T01:50:28.678Z,97993.02
2023-02-19T01:55:36.551Z,97985.98
2023-02-19T02:00:43.942Z,97982.80
2023-02-19T02:05:58.061Z,97980.88
2023-02-19T02:11:05.658Z,97971.18
2023-02-19T02:16:19.618Z,97967.26
2023-02-19T02:21:44.914Z,97964.73
2023-02-19T02:27:04.648Z,97963.38
2023-02-19T02:32:13.728Z,97948.92
2023-02-19T02:37:21.265Z,97948.95
2023-02-19T02:42:31.255Z,97946.95
2023-02-19T02:47:45.425Z,97942.33
2023-02-19T02:53:11.468Z,97941.21
2023-02-19T02:58:18.994Z,97937.57
2023-02-19T03:03:28.618Z,97932.51
2023-02-19T03:08:38.886Z,97923.78
2023-02-19T03:14:03.223Z,97926.03
2023-02-19T03:19:22.100Z,97926.48
2023-02-19T03:24:48.841Z,97928.25
2023-02-19T03:29:57.021Z,97925.48
2023-02-19T03:35:07.292Z,97925.87
2023-02-19T03:40:15.163Z,97926.69
2023-02-19T03:45:26.230Z,97930.06
2023-02-19T03:50:36.450Z,97926.69
2023-02-19T03:55:46.073Z,97920.98
2023-02-19T04:00:55.917Z,97917.65
2023-02-19T04:06:04.345Z,97905.42
2023-02-19T04:11:12.498Z,97903.67
2023-02-19T04:16:22.554Z,97903.97
2023-02-19T04:21:31.195Z,97901.25
2023-02-19T04:26:38.876Z,97900.41
2023-02-19T04:31:46.270Z,97897.20
2023-02-19T04:36:53.753Z,97895.71
2023-02-19T04:42:00.858Z,97885.83
2023-02-19T04:47:08.101Z,97880.20
2023-02-19T04:52:15.332Z,97865.09
2023-02-19T04:57:22.529Z,97848.32
2023-02-19T05:02:29.973Z,97839.06
2023-02-19T05:07:37.280Z,97838.81
2023-02-19T05:12:44.717Z,97830.56
2023-02-19T05:17:51.879Z,97827.89
2023-02-19T05:22:59.159Z,97832.88
2023-02-19T05:28:19.134Z,97830.95
2023-02-19T05:33:27.540Z,97833.50
2023-02-19T05:38:34.861Z,97834.90
2023-02-19T05:43:42.399Z,97826.01
2023-02-19T05:48:49.520Z,97834.58
2023-02-19T05:53:56.952Z,97819.96
2023-02-19T05:59:07.031Z,97811.44
2023-02-19T06:04:14.400Z,97812.06
2023-02-19T06:09:21.793Z,97813.61
2023-02-19T06:14:29.184Z,97810.79
2023-02-19T06:19:36.716Z,97819.86
2023-02-19T06:24:44.467Z,97819.86
2023-02-19T06:29:52.021Z,97820.00
2023-02-19T06:34:59.283Z,97818.19
2023-02-19T06:40:06.737Z,97811.96
2023-02-19T06:45:14.136Z,97805.11
2023-02-19T06:50:21.562Z,97805.01
2023-02-19T06:55:28.947Z,97809.80
2023-02-19T07:00:36.601Z,97801.79
2023-02-19T07:05:44.283Z,97796.64
2023-02-19T07:10:58.140Z,97795.09
2023-02-19T07:16:06.508Z,97794.61
2023-02-19T07:21:14.799Z,97795.80
2023-02-19T07:26:22.975Z,97793.10
2023-02-19T07:31:30.600Z,97791.14
2023-02-19T07:36:37.982Z,97792.38
2023-02-19T07:41:45.241Z,97785.00
2023-02-19T07:46:52.595Z,97779.70
2023-02-19T07:51:59.873Z,97781.67
2023-02-19T07:57:07.484Z,97773.02
2023-02-19T08:02:34.834Z,97771.86
2023-02-19T08:07:42.338Z,97770.86
2023-02-19T08:13:14.342Z,97773.30
2023-02-19T08:18:22.843Z,97779.71
2023-02-19T08:23:30.748Z,97785.87
2023-02-19T08:28:37.962Z,97789.44
2023-02-19T08:33:45.336Z,97792.45
2023-02-19T08:38:52.559Z,97798.95
2023-02-19T08:43:59.805Z,97794.71
2023-02-19T08:49:07.014Z,97790.56
2023-02-19T08:54:14.606Z,97788.80
2023-02-19T08:59:22.409Z,97786.27
2023-02-19T09:04:29.655Z,97792.73
2023-02-19T09:09:38.478Z,97790.95
2023-02-19T09:14:46.057Z,97797.89
2023-02-19T09:19:53.480Z,97806.19
2023-02-19T09:25:00.882Z,97804.42
2023-02-19T09:30:08.798Z,97815.89
2023-02-19T09:35:16.032Z,97818.87
2023-02-19T09:40:23.431Z,97832.95
2023-02-19T09:45:30.742Z,97834.02
2023-02-19T09:50:40.454Z,97838.16
2023-02-19T09:55:47.630Z,97850.77
2023-02-19T10:00:56.303Z,97863.58
2023-02-19T10:06:09.372Z,97886.92
2023-02-19T10:11:18.696Z,97899.22
2023-02-19T10:16:27.439Z,97909.34
2023-02-19T10:21:34.588Z,97912.71
2023-02-19T10:26:41.988Z,97912.05
2023-02-19T10:31:49.230Z,97922.36
2023-02-19T10:36:56.280Z,97926.57
2023-02-19T10:42:04.382Z,97928.23
2023-02-19T10:47:17.824Z,97937.26
2023-02-19T10:52:27.020Z,97930.09
2023-02-19T10:57:35.574Z,97945.33
2023-02-19T11:02:42.661Z,97958.46
2023-02-19T11:07:51.142Z,97972.62
2023-02-19T11:12:59.916Z,97973.95
2023-02-19T11:18:09.860Z,97983.66
2023-02-19T11:23:19.698Z,97986.31
2023-02-19T11:28:37.153Z,97991.96
2023-02-19T11:33:47.888Z,98000.20
2023-02-19T11:38:55.231Z,98005.41
2023-02-19T11:44:16.764Z,98008.42
2023-02-19T11:49:31.555Z,98013.45
2023-02-19T11:54:49.614Z,98023.06
2023-02-19T12:00:02.427Z,98042.63
2023-02-19T12:05:23.398Z,98049.15
2023-02-19T12:10:34.081Z,98062.95
2023-02-19T12:15:56.802Z,98068.95
2023-02-19T12:21:09.481Z,98083.09
2023-02-19T12:26:21.422Z,98088.17
2023-02-19T12:31:45.571Z,98092.64
2023-02-19T12:37:00.115Z,98090.39
2023-02-19T12:42:13.699Z,98090.52
2023-02-19T12:47:23.853Z,98091.91
2023-02-19T12:52:37.060Z,98102.89
2023-02-19T12:57:44.501Z,98104.16
2023-02-19T13:02:55.999Z,98114.61
2023-02-19T13:08:06.740Z,98121.38
2023-02-19T13:13:16.626Z,98133.75
2023-02-19T13:18:26.355Z,98133.80
2023-02-19T13:23:52.767Z,98144.48
2023-02-19T13:29:05.977Z,98155.86
2023-02-19T13:34:16.790Z,98165.34
2023-02-19T13:39:24.634Z,98168.53
2023-02-19T13:44:32.653Z,98173.42
2023-02-19T13:49:43.753Z,98185.34
2023-02-19T13:54:51.793Z,98188.95
2023-02-19T13:59:59.514Z,98186.63
2023-02-19T14:05:08.863Z,98192.55
2023-02-19T14:10:36.384Z,98196.95
2023-02-19T14:15:44.594Z,98203.93
2023-02-19T14:21:08.360Z,98220.13
2023-02-19T14:26:17.921Z,98234.70
2023-02-19T14:31:26.947Z,98239.89
2023-02-19T14:36:36.789Z,98248.13
2023-02-19T14:41:45.920Z,98254.59
2023-02-19T14:46:56.890Z,98259.80
2023-02-19T14:52:06.868Z,98267.77
2023-02-19T14:57:20.071Z,98272.02
2023-02-19T15:02:27.763Z,98276.84
2023-02-19T15:07:35.958Z,98275.58
2023-02-19T15:12:47.638Z,98281.50
2023-02-19T15:17:55.919Z,98292.67
2023-02-19T15:23:03.758Z,98300.27
2023-02-19T15:28:22.211Z,98313.55
2023-02-19T15:33:29.715Z,98311.30
2023-02-19T15:38:37.223Z,98317.23
2023-02-19T15:43:50.214Z,98327.08
2023-02-19T15:49:01.573Z,98343.41
2023-02-19T15:54:14.794Z,98357.94
2023-02-19T15:59:27.495Z,98373.02
2023-02-19T16:04:36.151Z,98378.98
2023-02-19T16:09:43.264Z,98385.89
2023-02-19T16:14:51.424Z,98402.31
2023-02-19T16:20:00.101Z,98412.91
2023-02-19T16:25:08.955Z,98417.39
2023-02-19T16:30:26.302Z,98425.67
2023-02-19T16:35:40.192Z,98430.02
2023-02-19T16:41:03.304Z,98447.31
2023-02-19T16:46:12.489Z,98463.73
2023-02-19T16:51:24.078Z,98476.08
2023-02-19T16:56:31.483Z,98487.60
2023-02-19T17:01:39.016Z,98497.59
2023-02-19T17:06:46.377Z,98501.30
2023-02-19T17:11:53.784Z,98506.98
2023-02-19T17:17:02.176Z,98515.60
2023-02-19T17:22:09.924Z,98520.20
2023-02-19T17:27:17.555Z,98524.86
2023-02-19T17:32:24.932Z,98529.98
2023-02-19T17:37:32.414Z,98535.12
2023-02-19T17:42:39.582Z,98550.44
2023-02-19T17:47:47.092Z,98567.50
2023-02-19T17:52:54.380Z,98577.13
2023-02-19T17:58:01.731Z,98571.52
2023-02-19T18:03:09.103Z,98582.97
2023-02-19T18:08:16.699Z,98585.58
2023-02-19T18:13:24.366Z,98595.34
2023-02-19T18:18:31.944Z,98610.66
2023-02-19T18:23:39.678Z,98622.27
2023-02-19T18:28:46.743Z,98628.50
2023-02-19T18:33:54.074Z,98632.61
2023-02-19T18:39:01.528Z,98636.10
2023-02-19T18:44:09.123Z,98633.62
2023-02-19T18:49:16.468Z,98642.98
2023-02-19T18:54:25.563Z,98645.45
2023-02-19T18:59:32.944Z,98648.59
2023-02-19T19:04:40.478Z,98656.20
2023-02-19T19:09:47.874Z,98664.27
2023-02-19T19:14:55.335Z,98669.40
2023-02-19T19:20:02.468Z,98669.79
2023-02-19T19:25:10.359Z,98686.84
2023-02-19T19:30:18.108Z,98693.86
2023-02-19T19:35:25.338Z,98685.70
2023-02-19T19:40:32.527Z,98696.70
2023-02-19T19:45:40.162Z,98704.51
2023-02-19T19:50:47.716Z,98707.55
2023-02-19T19:55:55.066Z,98711.49
2023-02-19T20:01:02.567Z,98719.63
2023-02-19T20:06:10.209Z,98719.41
2023-02-19T20:11:17.615Z,98717.90
2023-02-19T20:16:28.810Z,98716.73
2023-02-19T20:21:35.842Z,98715.24
2023-02-19T20:26:42.966Z,98723.33
2023-02-19T20:31:51.973Z,98726.86
2023-02-19T20:36:59.961Z,98732.72
2023-02-19T20:42:08.072Z,98728.39
2023-02-19T20:47:15.504Z,98744.20
2023-02-19T20:52:25.165Z,98751.09
2023-02-19T20:57:32.467Z,98763.31
2023-02-19T21:02:39.495Z,98763.00
2023-02-19T21:07:46.943Z,98772.35
2023-02-19T21:12:54.815Z,98786.09
2023-02-19T21:18:02.022Z,98793.83
2023-02-19T21:23:09.182Z,98805.29
2023-02-19T21:28:16.554Z,98812.48
2023-02-19T21:33:23.779Z,98815.55
2023-02-19T21:38:32.672Z,98816.20
2023-02-19T21:43:40.443Z,98820.16
2023-02-19T21:48:49.082Z,98824.28
2023-02-19T21:53:56.334Z,98825.32
2023-02-19T21:59:03.869Z,98824.53
2023-02-19T22:04:11.402Z,98833.14
2023-02-19T22:09:18.441Z,98836.55
2023-02-19T22:14:25.592Z,98833.81
2023-02-19T22:19:32.728Z,98839.45
2023-02-19T22:24:40.234Z,98849.77
2023-02-19T22:29:47.389Z,98852.23
2023-02-19T22:34:54.649Z,98858.34
2023-02-19T22:40:01.838Z,98862.36
2023-02-19T22:45:09.598Z,98861.75
2023-02-19T22:50:20.316Z,98861.12
2023-02-19T22:55:27.643Z,98864.13
2023-02-19T23:00:35.575Z,98872.66
2023-02-19T23:05:43.063Z,98879.77
2023-02-19T23:10:50.134Z,98885.88
2023-02-19T23:15:57.570Z,98890.21
2023-02-19T23:21:04.764Z,98899.30
2023-02-19T23:26:12.593Z,98902.85
2023-02-19T23:31:19.995Z,98901.04
2023-02-19T23:36:27.405Z,98903.25
2023-02-19T23:41:34.563Z,98904.30
2023-02-19T23:46:41.589Z,98904.46
2023-02-19T23:51:48.790Z,98898.41
2023-02-19T23:56:57.141Z,98889.82
